Time;durP1;ratioP1;P1;durP2;ratioP2;P2;SDS_P1;SDS_P2;PMS_P1;PMS_P2;Temp;Humidity;BMP_temperature;BMP_pressure;BME280_temperature;BME280_humidity;BME280_pressure;Samples;Min_cycle;Max_cycle;Signal;HPM_P1;HPM_P2
2021/01/04 00:09:45;;;;;;;1.65;0.40;;;10.40;61.00;;;;;;20846978;28;20502;-68
2021/01/04 00:19:49;;;;;;;0.52;0.30;;;10.40;61.00;;;;;;20807965;28;20443;-68
2021/01/04 00:29:54;;;;;;;0.22;0.15;;;10.40;61.00;;;;;;20796268;28;20124;-66
2021/01/04 00:40:08;;;;;;;0.90;0.22;;;10.30;60.90;;;;;;20812455;28;20088;-68
2021/01/04 00:50:34;;;;;;;0.10;0.10;;;10.30;61.00;;;;;;20814680;28;20043;-66
2021/01/04 01:00:37;;;;;;;1.10;0.40;;;10.40;61.20;;;;;;20834371;28;20466;-67
2021/01/04 01:10:51;;;;;;;0.20;0.20;;;10.30;61.00;;;;;;20818124;28;20044;-66
2021/01/04 01:20:55;;;;;;;0.10;0.10;;;10.30;61.80;;;;;;20807092;28;20491;-68
2021/01/04 01:31:18;;;;;;;0.25;0.20;;;10.30;61.00;;;;;;20799503;28;20479;-67
2021/01/04 01:41:53;;;;;;;0.05;0.05;;;10.30;61.10;;;;;;20834909;28;20048;-67
2021/01/04 01:52:25;;;;;;;0.32;0.22;;;10.30;61.10;;;;;;20846995;28;20069;-65
2021/01/04 02:02:55;;;;;;;0.45;0.25;;;10.30;61.10;;;;;;20866634;28;20029;-66
2021/01/04 02:13:04;;;;;;;1.27;0.70;;;10.30;61.20;;;;;;20859798;28;20044;-67
2021/01/04 02:23:28;;;;;;;0.93;0.40;;;10.30;61.20;;;;;;20814089;28;20032;-66
2021/01/04 02:33:29;;;;;;;0.90;0.32;;;10.30;61.20;;;;;;20849337;28;20041;-66
2021/01/04 02:43:29;;;;;;;0.25;0.10;;;10.30;61.20;;;;;;20843686;28;20541;-66
2021/01/04 02:53:56;;;;;;;0.45;0.40;;;10.30;61.30;;;;;;20819567;28;20112;-67
2021/01/04 03:03:57;;;;;;;0.55;0.30;;;10.20;61.20;;;;;;20816885;28;20048;-66
2021/01/04 03:14:07;;;;;;;0.20;0.20;;;10.30;61.30;;;;;;20835364;28;20025;-66
2021/01/04 03:24:10;;;;;;;0.45;0.45;;;10.20;61.30;;;;;;20821807;28;20036;-66
2021/01/04 03:34:11;;;;;;;0.10;0.10;;;10.20;61.20;;;;;;20828598;28;20033;-66
2021/01/04 03:44:11;;;;;;;1.15;0.52;;;10.20;61.90;;;;;;20812148;28;20400;-68
2021/01/04 03:54:12;;;;;;;0.57;0.20;;;10.20;61.30;;;;;;20841623;28;20481;-67
2021/01/04 04:04:12;;;;;;;0.20;0.20;;;10.20;61.30;;;;;;20839084;28;20480;-67
2021/01/04 04:14:14;;;;;;;0.25;0.25;;;10.20;61.30;;;;;;20841986;28;20041;-65
2021/01/04 04:24:14;;;;;;;1.40;0.50;;;10.20;61.30;;;;;;20807924;28;20456;-66
2021/01/04 04:34:15;;;;;;;0.75;0.20;;;10.20;61.30;;;;;;20811098;28;20065;-67
2021/01/04 04:44:33;;;;;;;0.28;0.28;;;10.20;61.40;;;;;;20797475;28;20033;-65
2021/01/04 04:54:46;;;;;;;1.08;0.22;;;10.20;61.40;;;;;;20824382;28;20134;-69
2021/01/04 05:05:14;;;;;;;0.35;0.30;;;10.20;61.40;;;;;;20831952;28;20437;-66
2021/01/04 05:15:27;;;;;;;0.10;0.10;;;10.20;61.50;;;;;;20808643;28;20322;-65
2021/01/04 05:25:47;;;;;;;0.52;0.40;;;10.30;61.90;;;;;;20817615;28;20040;-65
2021/01/04 05:35:47;;;;;;;0.43;0.40;;;10.70;61.60;;;;;;20817224;28;20049;-66
2021/01/04 05:46:08;;;;;;;0.52;0.52;;;11.00;60.80;;;;;;20813412;28;20445;-66
2021/01/04 05:56:08;;;;;;;0.32;0.28;;;11.30;59.80;;;;;;20797354;28;20045;-66
2021/01/04 06:06:30;;;;;;;0.20;0.20;;;11.50;59.00;;;;;;20799475;28;20106;-66
2021/01/04 06:16:31;;;;;;;0.25;0.20;;;11.70;58.50;;;;;;20828996;28;20041;-66
2021/01/04 06:26:32;;;;;;;0.85;0.28;;;11.70;57.70;;;;;;20796221;28;20072;-66
2021/01/04 06:36:34;;;;;;;0.10;0.10;;;11.50;57.50;;;;;;20821438;28;20126;-68
2021/01/04 06:46:50;;;;;;;1.35;0.17;;;11.30;57.30;;;;;;20853569;28;20037;-68
2021/01/04 06:57:13;;;;;;;0.10;0.10;;;11.10;57.70;;;;;;20854323;28;20036;-67
2021/01/04 07:07:37;;;;;;;0.10;0.10;;;11.00;58.20;;;;;;20823867;28;20033;-67
2021/01/04 07:17:44;;;;;;;0.10;0.10;;;10.90;58.50;;;;;;20815858;28;20045;-67
2021/01/04 07:27:48;;;;;;;0.03;0.03;;;10.90;59.00;;;;;;20815473;28;20550;-66
2021/01/04 07:38:17;;;;;;;2.28;0.20;;;10.80;59.20;;;;;;20830592;28;20395;-67
2021/01/04 07:48:55;;;;;;;0.20;0.20;;;10.80;59.50;;;;;;20810297;28;20049;-66
2021/01/04 07:59:34;;;;;;;0.10;0.10;;;10.80;59.50;;;;;;20844934;28;20029;-67
2021/01/04 08:09:44;;;;;;;0.00;0.00;;;10.70;59.60;;;;;;20809884;28;20503;-66
2021/01/04 08:19:44;;;;;;;0.25;0.20;;;10.80;59.90;;;;;;20834182;28;20094;-68
2021/01/04 08:30:01;;;;;;;0.73;0.20;;;10.70;59.80;;;;;;20800474;28;20029;-66
2021/01/04 08:40:26;;;;;;;0.90;0.20;;;10.70;59.80;;;;;;20847446;28;20566;-66
2021/01/04 08:50:35;;;;;;;0.40;0.20;;;10.70;59.90;;;;;;20776432;28;20065;-67
2021/01/04 09:00:35;;;;;;;0.10;0.10;;;10.70;60.00;;;;;;20782010;28;20033;-68
2021/01/04 09:10:47;;;;;;;0.20;0.15;;;10.70;59.90;;;;;;20843164;28;20076;-68
2021/01/04 09:20:58;;;;;;;0.10;0.10;;;10.60;59.90;;;;;;21142795;22;20042;-72
2021/01/04 09:30:59;;;;;;;1.85;0.20;;;10.60;60.00;;;;;;20684590;28;20425;-72
2021/01/04 09:41:05;;;;;;;1.25;0.22;;;10.60;60.00;;;;;;20695595;28;20124;-71
2021/01/04 09:51:06;;;;;;;0.20;0.15;;;10.60;60.00;;;;;;20658351;28;20045;-72
2021/01/04 10:01:11;;;;;;;1.70;0.28;;;10.60;60.00;;;;;;20677967;28;20069;-71
2021/01/04 10:11:17;;;;;;;0.30;0.20;;;10.60;60.10;;;;;;20672618;28;20037;-69
2021/01/04 10:21:23;;;;;;;0.43;0.38;;;10.60;60.20;;;;;;20691027;28;20034;-71
2021/01/04 10:31:28;;;;;;;0.00;0.00;;;10.60;60.10;;;;;;20669324;28;20496;-71
2021/01/04 10:41:29;;;;;;;0.30;0.20;;;10.60;60.10;;;;;;20690682;28;20061;-74
2021/01/04 10:51:30;;;;;;;1.13;0.30;;;10.60;60.20;;;;;;20691638;28;20046;-73
2021/01/04 11:01:32;;;;;;;0.25;0.25;;;10.60;60.20;;;;;;20690618;28;20030;-72
2021/01/04 11:11:35;;;;;;;0.10;0.10;;;10.60;60.20;;;;;;20678001;28;20046;-73
2021/01/04 11:21:40;;;;;;;0.30;0.20;;;10.50;60.20;;;;;;20685626;28;20128;-74
2021/01/04 11:31:41;;;;;;;0.68;0.50;;;10.60;60.30;;;;;;20672729;28;20499;-73
2021/01/04 11:41:43;;;;;;;5.57;0.35;;;10.60;60.30;;;;;;20694665;28;20201;-74
2021/01/04 11:51:43;;;;;;;1.20;0.38;;;10.50;60.30;;;;;;20654950;28;20388;-72
2021/01/04 12:01:44;;;;;;;0.28;0.28;;;10.60;60.40;;;;;;20690371;28;20048;-74
2021/01/04 12:11:47;;;;;;;0.45;0.20;;;10.50;60.30;;;;;;20684274;28;20081;-70
2021/01/04 12:21:48;;;;;;;0.30;0.30;;;10.50;60.40;;;;;;20710006;28;20117;-71
2021/01/04 12:31:48;;;;;;;0.75;0.10;;;10.60;60.50;;;;;;20680987;28;20113;-71
2021/01/04 12:41:49;;;;;;;0.00;0.00;;;10.50;60.50;;;;;;20689660;28;20387;-72
2021/01/04 12:51:57;;;;;;;0.00;0.00;;;10.50;60.50;;;;;;20672548;28;20049;-71
2021/01/04 13:01:58;;;;;;;0.50;0.25;;;10.50;60.50;;;;;;20723220;28;20108;-71
2021/01/04 13:11:59;;;;;;;0.15;0.15;;;10.50;60.60;;;;;;20707967;28;20042;-74
2021/01/04 13:22:00;;;;;;;0.32;0.30;;;10.50;60.50;;;;;;20687043;28;20757;-73
2021/01/04 13:32:01;;;;;;;0.15;0.10;;;10.40;61.30;;;;;;20691913;28;20036;-73
2021/01/04 13:42:02;;;;;;;0.00;0.00;;;10.50;60.70;;;;;;20718971;28;20072;-73
2021/01/04 13:52:03;;;;;;;0.25;0.20;;;10.40;60.60;;;;;;20692165;28;20053;-71
2021/01/04 14:02:04;;;;;;;0.22;0.22;;;10.40;60.70;;;;;;20684297;28;20039;-71
2021/01/04 14:12:05;;;;;;;0.10;0.10;;;10.40;60.70;;;;;;20648037;28;20121;-72
2021/01/04 14:22:06;;;;;;;0.10;0.10;;;10.40;60.70;;;;;;20678096;28;20129;-70
2021/01/04 14:32:10;;;;;;;0.75;0.52;;;10.40;60.70;;;;;;20687768;28;20124;-70
2021/01/04 14:42:18;;;;;;;0.17;0.17;;;10.40;60.70;;;;;;20681173;28;20077;-70
2021/01/04 14:52:19;;;;;;;0.10;0.10;;;10.40;60.80;;;;;;20714272;28;20531;-72
2021/01/04 15:02:19;;;;;;;0.15;0.15;;;10.40;60.90;;;;;;20686179;28;20083;-71
2021/01/04 15:12:20;;;;;;;0.22;0.22;;;10.30;60.90;;;;;;20675430;28;20025;-70
2021/01/04 15:22:21;;;;;;;0.20;0.20;;;10.40;61.30;;;;;;20698175;28;20056;-71
2021/01/04 15:32:22;;;;;;;0.00;0.00;;;10.80;61.40;;;;;;20683953;28;20026;-71
2021/01/04 15:42:22;;;;;;;0.55;0.20;;;11.00;60.50;;;;;;20708745;28;20042;-70
2021/01/04 15:52:23;;;;;;;0.65;0.28;;;11.30;59.70;;;;;;20690694;28;20026;-71
2021/01/04 16:02:23;;;;;;;0.57;0.20;;;11.50;59.00;;;;;;20707370;28;20425;-70
2021/01/04 16:12:25;;;;;;;0.08;0.08;;;11.60;58.40;;;;;;20712343;28;20116;-71
2021/01/04 16:22:26;;;;;;;0.40;0.25;;;11.70;57.60;;;;;;20691509;28;20327;-69
2021/01/04 16:32:26;;;;;;;0.55;0.40;;;11.60;57.10;;;;;;20721805;28;20116;-70
2021/01/04 16:42:28;;;;;;;0.28;0.28;;;11.40;57.30;;;;;;20723589;28;20046;-69
2021/01/04 16:52:28;;;;;;;0.25;0.20;;;11.20;57.70;;;;;;20673214;28;20030;-68
2021/01/04 17:02:29;;;;;;;0.30;0.20;;;11.10;58.10;;;;;;20696810;28;20165;-70
2021/01/04 17:12:30;;;;;;;1.92;0.40;;;11.10;58.50;;;;;;20651916;28;20038;-70
2021/01/04 17:22:30;;;;;;;1.73;0.17;;;11.00;58.60;;;;;;20720921;28;20046;-69
2021/01/04 17:32:31;;;;;;;0.03;0.03;;;10.90;59.00;;;;;;20708202;28;20309;-71
2021/01/04 17:42:49;;;;;;;0.22;0.20;;;10.90;59.30;;;;;;20711708;28;20042;-71
2021/01/04 17:52:50;;;;;;;0.20;0.20;;;10.80;59.40;;;;;;20671171;28;20473;-71
2021/01/04 18:02:51;;;;;;;0.20;0.20;;;10.80;59.60;;;;;;20688251;28;20096;-69
2021/01/04 18:12:52;;;;;;;0.17;0.13;;;10.80;59.80;;;;;;20700394;28;20100;-70
2021/01/04 18:22:52;;;;;;;0.55;0.20;;;10.80;59.80;;;;;;20695009;28;20068;-73
2021/01/04 18:32:53;;;;;;;0.15;0.15;;;10.70;59.90;;;;;;20687287;28;20527;-71
2021/01/04 18:42:54;;;;;;;0.22;0.20;;;10.70;60.00;;;;;;20701712;28;20080;-71
2021/01/04 18:52:58;;;;;;;0.63;0.20;;;10.70;60.10;;;;;;20715129;28;20046;-72
2021/01/04 19:02:58;;;;;;;0.20;0.20;;;10.70;60.00;;;;;;20710153;28;20041;-70
2021/01/04 19:12:59;;;;;;;0.28;0.28;;;10.70;60.10;;;;;;20707015;28;20045;-72
2021/01/04 19:23:00;;;;;;;0.10;0.10;;;10.70;60.10;;;;;;20682608;28;20388;-70
2021/01/04 19:33:00;;;;;;;0.70;0.20;;;10.70;60.10;;;;;;20726246;28;20045;-70
2021/01/04 19:43:01;;;;;;;2.65;0.38;;;10.70;60.20;;;;;;20718452;28;20033;-71
2021/01/04 19:53:01;;;;;;;0.10;0.10;;;10.60;60.20;;;;;;20705334;28;20117;-71
2021/01/04 20:03:02;;;;;;;0.52;0.45;;;10.70;60.20;;;;;;20696719;28;20053;-70
2021/01/04 20:13:03;;;;;;;0.68;0.28;;;10.60;60.10;;;;;;20709131;28;20026;-71
2021/01/04 20:23:03;;;;;;;0.57;0.20;;;10.60;60.20;;;;;;20695527;28;20048;-71
2021/01/04 20:33:04;;;;;;;1.55;0.50;;;10.60;60.20;;;;;;20709077;28;20062;-71
2021/01/04 20:43:04;;;;;;;0.17;0.17;;;10.60;60.20;;;;;;20691943;28;20042;-70
2021/01/04 20:53:05;;;;;;;0.57;0.28;;;10.60;60.30;;;;;;20676186;28;20085;-70
2021/01/04 21:03:05;;;;;;;0.85;0.43;;;10.60;60.20;;;;;;20696837;28;20038;-70
2021/01/04 21:13:06;;;;;;;0.55;0.35;;;10.60;60.30;;;;;;20690732;28;20741;-70
2021/01/04 21:23:07;;;;;;;0.70;0.40;;;10.60;60.30;;;;;;20676538;28;20030;-71
2021/01/04 21:33:07;;;;;;;1.17;0.60;;;10.60;60.30;;;;;;20694580;28;20117;-71
2021/01/04 21:43:08;;;;;;;0.25;0.20;;;10.60;60.30;;;;;;20695753;28;20058;-71
2021/01/04 21:53:08;;;;;;;1.63;0.65;;;10.50;60.30;;;;;;20663036;28;20034;-71
2021/01/04 22:03:09;;;;;;;0.10;0.10;;;10.50;60.30;;;;;;20694365;28;20130;-71
2021/01/04 22:13:09;;;;;;;0.77;0.20;;;10.50;60.30;;;;;;20705083;28;20327;-70
2021/01/04 22:23:10;;;;;;;0.20;0.20;;;10.50;60.50;;;;;;20724392;28;20129;-71
2021/01/04 22:33:11;;;;;;;0.65;0.38;;;10.50;60.40;;;;;;20722797;28;20085;-71
2021/01/04 22:43:11;;;;;;;0.93;0.60;;;10.50;60.50;;;;;;20695550;28;20466;-70
2021/01/04 22:53:12;;;;;;;0.30;0.25;;;10.50;60.50;;;;;;20732238;28;20468;-71
2021/01/04 23:03:13;;;;;;;0.40;0.40;;;10.50;60.50;;;;;;20730302;28;20125;-70
2021/01/04 23:13:15;;;;;;;1.05;0.57;;;10.50;60.50;;;;;;20699158;28;20396;-71
2021/01/04 23:23:17;;;;;;;0.28;0.20;;;10.50;60.50;;;;;;20673534;28;20043;-72
2021/01/04 23:33:21;;;;;;;0.30;0.30;;;10.40;60.50;;;;;;20668164;28;20038;-70
2021/01/04 23:43:22;;;;;;;1.05;0.32;;;10.50;60.60;;;;;;20705330;28;20041;-71
2021/01/04 23:53:22;;;;;;;0.45;0.40;;;10.50;60.60;;;;;;20702109;28;20484;-70
